Time;durP1;ratioP1;P1;durP2;ratioP2;P2;SDS_P1;SDS_P2;PMS_P1;PMS_P2;Temp;Humidity;BMP_temperature;BMP_pressure;BME280_temperature;BME280_humidity;BME280_pressure;Samples;Min_cycle;Max_cycle;Signal;HPM_P1;HPM_P2
2024/03/05 00:00:09;;;;;;;;;;;8.80;99.90;;;;;;4929830;29;20552;-63
2024/03/05 00:02:38;;;;;;;24.92;15.65;;;8.80;99.90;;;;;;4931678;29;20010;-63
2024/03/05 00:05:06;;;;;;;23.40;15.65;;;8.70;99.90;;;;;;4930814;29;20097;-63
2024/03/05 00:07:36;;;;;;;23.80;16.15;;;8.60;99.90;;;;;;4932043;29;20059;-63
2024/03/05 00:10:04;;;;;;;19.38;15.23;;;8.60;99.90;;;;;;4931253;29;20138;-62
2024/03/05 00:12:31;;;;;;;24.98;15.88;;;8.60;99.90;;;;;;4931261;29;20051;-63
2024/03/05 00:14:58;;;;;;;17.52;13.73;;;8.60;99.90;;;;;;4930124;29;20466;-63
2024/03/05 00:17:24;;;;;;;23.42;16.17;;;8.50;99.90;;;;;;4929567;29;20048;-63
2024/03/05 00:19:51;;;;;;;21.50;16.27;;;8.50;99.90;;;;;;4930280;29;20091;-62
2024/03/05 00:22:19;;;;;;;23.95;15.90;;;8.50;99.90;;;;;;4932304;29;20062;-63
2024/03/05 00:24:46;;;;;;;23.80;15.13;;;8.50;99.90;;;;;;4934417;29;20099;-63
2024/03/05 00:27:13;;;;;;;22.05;14.38;;;8.40;99.90;;;;;;4935415;29;20051;-63
2024/03/05 00:29:41;;;;;;;26.05;15.45;;;8.40;99.90;;;;;;4933007;29;20052;-63
2024/03/05 00:32:07;;;;;;;22.58;16.08;;;8.40;99.90;;;;;;4935574;29;20068;-63
2024/03/05 00:34:35;;;;;;;23.08;16.17;;;8.40;99.90;;;;;;4932294;29;20048;-63
2024/03/05 00:37:01;;;;;;;24.52;15.82;;;8.40;99.90;;;;;;4933036;29;20051;-63
2024/03/05 00:39:28;;;;;;;22.33;15.10;;;8.40;99.90;;;;;;4939018;29;20056;-63
2024/03/05 00:41:55;;;;;;;19.15;14.70;;;8.40;99.90;;;;;;4937378;29;20075;-63
2024/03/05 00:44:21;;;;;;;25.63;15.70;;;8.40;99.90;;;;;;4934048;29;20051;-63
2024/03/05 00:46:48;;;;;;;22.25;15.50;;;8.40;99.90;;;;;;4934406;29;20461;-63
2024/03/05 00:49:15;;;;;;;22.15;15.10;;;8.30;99.90;;;;;;4933301;29;20056;-63
2024/03/05 00:51:42;;;;;;;23.73;15.52;;;8.30;99.90;;;;;;4931039;29;21018;-64
2024/03/05 00:54:09;;;;;;;27.38;15.50;;;8.30;99.90;;;;;;4933176;29;20752;-63
2024/03/05 00:56:37;;;;;;;19.30;14.10;;;8.40;99.90;;;;;;4935048;29;20055;-63
2024/03/05 00:59:04;;;;;;;22.13;15.25;;;8.40;99.90;;;;;;4935194;29;20279;-63
2024/03/05 01:01:31;;;;;;;19.80;14.07;;;8.40;99.90;;;;;;4930301;29;20500;-63
2024/03/05 01:03:58;;;;;;;22.85;14.75;;;8.30;99.90;;;;;;4932649;29;20090;-63
2024/03/05 01:06:25;;;;;;;22.95;15.20;;;8.30;99.90;;;;;;4932744;29;20048;-63
2024/03/05 01:08:51;;;;;;;20.92;14.50;;;8.30;99.90;;;;;;4933021;29;20060;-63
2024/03/05 01:11:18;;;;;;;21.58;13.77;;;8.40;99.90;;;;;;4936792;29;20060;-63
2024/03/05 01:13:45;;;;;;;21.90;13.30;;;8.40;99.90;;;;;;4931871;29;20612;-63
2024/03/05 01:16:11;;;;;;;18.23;12.77;;;8.40;99.90;;;;;;4933610;29;20055;-64
2024/03/05 01:18:38;;;;;;;19.83;13.75;;;8.40;99.90;;;;;;4937043;29;20044;-63
2024/03/05 01:21:06;;;;;;;16.70;12.82;;;8.40;99.90;;;;;;4936379;29;20086;-64
2024/03/05 01:23:33;;;;;;;19.17;13.75;;;8.40;99.90;;;;;;4931658;29;20091;-63
2024/03/05 01:26:00;;;;;;;23.00;14.68;;;8.40;99.90;;;;;;4936260;29;20122;-63
2024/03/05 01:28:30;;;;;;;19.63;13.30;;;8.50;99.90;;;;;;4934550;29;20056;-62
2024/03/05 01:30:58;;;;;;;19.95;13.57;;;8.40;99.90;;;;;;4936429;28;20076;-63
2024/03/05 01:33:26;;;;;;;22.80;13.07;;;8.40;99.90;;;;;;4933637;29;20059;-64
2024/03/05 01:35:52;;;;;;;17.40;13.82;;;8.40;99.90;;;;;;4931654;29;20051;-63
2024/03/05 01:38:20;;;;;;;21.88;14.50;;;8.40;99.90;;;;;;4936959;29;20058;-63
2024/03/05 01:40:47;;;;;;;21.65;14.02;;;8.40;99.90;;;;;;4932214;29;20040;-63
2024/03/05 01:43:14;;;;;;;21.50;14.30;;;8.40;99.90;;;;;;4932086;29;20164;-63
2024/03/05 01:45:45;;;;;;;21.83;14.43;;;8.40;99.90;;;;;;4930677;29;20047;-63
2024/03/05 01:48:13;;;;;;;21.13;15.85;;;8.40;99.90;;;;;;4931895;29;20421;-63
2024/03/05 01:50:42;;;;;;;21.63;15.25;;;8.40;99.90;;;;;;4931245;29;20055;-61
2024/03/05 01:53:11;;;;;;;22.92;15.27;;;8.40;99.90;;;;;;4932893;29;20108;-63
2024/03/05 01:55:39;;;;;;;21.60;15.35;;;8.40;99.90;;;;;;4933690;29;20056;-62
2024/03/05 01:58:08;;;;;;;21.55;15.32;;;8.40;99.90;;;;;;4930638;29;20504;-63
2024/03/05 02:00:36;;;;;;;22.45;15.48;;;8.40;99.90;;;;;;4932306;29;20094;-63
2024/03/05 02:03:04;;;;;;;23.70;15.15;;;8.40;99.90;;;;;;4930529;29;20805;-63
2024/03/05 02:05:32;;;;;;;22.60;15.02;;;8.40;99.90;;;;;;4934231;29;20489;-62
2024/03/05 02:08:00;;;;;;;21.98;15.13;;;8.30;99.90;;;;;;4934672;29;20044;-62
2024/03/05 02:10:27;;;;;;;21.92;14.93;;;8.40;99.90;;;;;;4930169;29;20091;-63
2024/03/05 02:12:54;;;;;;;23.58;15.20;;;8.30;99.90;;;;;;4926273;29;20146;-63
2024/03/05 02:15:20;;;;;;;21.25;15.60;;;8.30;99.90;;;;;;4933704;29;20083;-63
2024/03/05 02:17:49;;;;;;;20.85;14.75;;;8.30;99.90;;;;;;4934304;29;20061;-63
2024/03/05 02:20:17;;;;;;;20.65;15.02;;;8.30;99.90;;;;;;4924503;29;20052;-63
2024/03/05 02:22:46;;;;;;;19.83;13.68;;;8.20;99.90;;;;;;4930085;29;20087;-62
2024/03/05 02:25:13;;;;;;;20.30;14.05;;;8.30;99.90;;;;;;4934873;29;20788;-63
2024/03/05 02:27:44;;;;;;;19.23;14.25;;;8.30;99.90;;;;;;4932298;29;20058;-63
2024/03/05 02:30:12;;;;;;;19.25;13.70;;;8.30;99.90;;;;;;4931192;29;20048;-63
2024/03/05 02:32:40;;;;;;;21.50;14.30;;;8.20;99.90;;;;;;4933276;29;20095;-62
2024/03/05 02:35:09;;;;;;;19.45;13.68;;;8.20;99.90;;;;;;4931884;29;20083;-63
2024/03/05 02:37:39;;;;;;;19.95;13.98;;;8.20;99.90;;;;;;4932408;29;20123;-63
2024/03/05 02:40:10;;;;;;;21.50;14.02;;;8.20;99.90;;;;;;4929151;29;20095;-62
2024/03/05 02:42:37;;;;;;;19.88;13.60;;;8.20;99.90;;;;;;4932324;29;20052;-63
2024/03/05 02:45:04;;;;;;;22.10;14.07;;;8.20;99.90;;;;;;4931907;29;20059;-63
2024/03/05 02:47:39;;;;;;;20.95;14.48;;;8.30;99.90;;;;;;4929837;29;20061;-63
2024/03/05 02:50:08;;;;;;;20.27;13.85;;;8.20;99.90;;;;;;4929709;29;20051;-63
2024/03/05 02:52:39;;;;;;;21.58;14.27;;;8.20;99.90;;;;;;4931190;29;20048;-64
2024/03/05 02:55:10;;;;;;;22.38;14.82;;;8.20;99.90;;;;;;4927483;29;20055;-60
2024/03/05 02:57:38;;;;;;;19.13;13.90;;;8.20;99.90;;;;;;4929956;29;20060;-63
2024/03/05 03:00:10;;;;;;;22.13;14.20;;;8.20;99.90;;;;;;4930503;29;20528;-63
2024/03/05 03:02:37;;;;;;;22.38;15.40;;;8.20;99.90;;;;;;4928739;29;20107;-63
2024/03/05 03:05:05;;;;;;;20.23;14.23;;;8.10;99.90;;;;;;4933357;29;20073;-65
2024/03/05 03:07:32;;;;;;;26.20;14.80;;;8.10;99.90;;;;;;4931307;29;20055;-63
2024/03/05 03:10:00;;;;;;;20.42;14.13;;;8.10;99.90;;;;;;4930730;29;20106;-62
2024/03/05 03:12:27;;;;;;;19.92;13.80;;;8.20;99.90;;;;;;4929618;29;20052;-63
2024/03/05 03:14:54;;;;;;;22.80;15.02;;;8.10;99.90;;;;;;4930102;29;20511;-63
2024/03/05 03:17:21;;;;;;;20.67;14.57;;;8.10;99.90;;;;;;4926106;29;20090;-63
2024/03/05 03:19:47;;;;;;;22.73;15.20;;;8.00;99.90;;;;;;4930278;29;20044;-62
2024/03/05 03:22:14;;;;;;;21.83;14.32;;;8.10;99.90;;;;;;4931449;29;20054;-63
2024/03/05 03:24:42;;;;;;;22.63;15.23;;;8.10;99.90;;;;;;4929058;29;20046;-63
2024/03/05 03:27:09;;;;;;;20.52;14.43;;;8.00;99.90;;;;;;4932080;29;20075;-63
2024/03/05 03:29:36;;;;;;;19.83;14.60;;;8.00;99.90;;;;;;4927791;29;20059;-63
2024/03/05 03:32:04;;;;;;;21.45;15.07;;;8.10;99.90;;;;;;4928848;29;20051;-62
2024/03/05 03:34:31;;;;;;;23.50;14.98;;;8.10;99.90;;;;;;4930729;29;20059;-63
2024/03/05 03:36:57;;;;;;;22.42;15.13;;;8.10;99.90;;;;;;4927047;29;20485;-63
2024/03/05 03:39:24;;;;;;;23.90;15.13;;;8.10;99.90;;;;;;4929355;29;20095;-63
2024/03/05 03:41:54;;;;;;;24.70;15.57;;;8.10;99.90;;;;;;4928979;29;20048;-63
2024/03/05 03:44:22;;;;;;;;;;;8.10;99.90;;;;;;4927443;29;20054;-63
2024/03/05 03:46:50;;;;;;;19.23;14.13;;;8.10;99.90;;;;;;4930055;29;19955;-63
2024/03/05 03:49:23;;;;;;;23.88;14.77;;;8.10;99.90;;;;;;4931165;29;20055;-63
2024/03/05 03:51:52;;;;;;;20.75;14.77;;;8.00;99.90;;;;;;4932306;29;20043;-63
2024/03/05 03:54:19;;;;;;;22.70;15.48;;;8.00;99.90;;;;;;4932739;28;20051;-63
2024/03/05 03:56:45;;;;;;;22.90;15.63;;;8.00;99.90;;;;;;4938262;29;20099;-63
2024/03/05 03:59:13;;;;;;;22.50;15.00;;;8.00;99.90;;;;;;4935353;29;20051;-63
2024/03/05 04:01:39;;;;;;;23.30;15.68;;;8.10;99.90;;;;;;4937774;29;20086;-63
2024/03/05 04:04:06;;;;;;;22.52;15.23;;;8.10;99.90;;;;;;4936659;29;20044;-63
2024/03/05 04:06:33;;;;;;;21.52;14.35;;;8.10;99.90;;;;;;4936459;29;20051;-63
2024/03/05 04:09:00;;;;;;;21.13;15.57;;;8.10;99.90;;;;;;4932675;29;20044;-63
2024/03/05 04:11:27;;;;;;;23.17;16.40;;;8.10;99.90;;;;;;4932657;29;20568;-63
2024/03/05 04:13:54;;;;;;;23.88;15.10;;;8.10;99.90;;;;;;4936455;29;20048;-63
2024/03/05 04:16:21;;;;;;;24.65;16.23;;;8.10;99.90;;;;;;4938140;29;20063;-63
2024/03/05 04:18:48;;;;;;;21.55;14.93;;;8.10;99.90;;;;;;4932639;29;20075;-63
2024/03/05 04:21:15;;;;;;;19.73;14.80;;;8.10;99.90;;;;;;4936666;29;20131;-64
2024/03/05 04:23:42;;;;;;;20.92;15.25;;;8.10;99.90;;;;;;4938165;29;20047;-64
2024/03/05 04:26:13;;;;;;;20.83;13.93;;;8.10;99.90;;;;;;4942892;29;20473;-64
2024/03/05 04:28:48;;;;;;;20.85;13.35;;;8.10;99.90;;;;;;4932713;29;20050;-64
2024/03/05 04:31:16;;;;;;;19.25;13.05;;;8.10;99.90;;;;;;4932586;29;20051;-63
2024/03/05 04:33:46;;;;;;;18.63;13.13;;;8.10;99.90;;;;;;4932372;29;20082;-63
2024/03/05 04:36:14;;;;;;;18.73;13.02;;;8.10;99.90;;;;;;4932926;29;20055;-63
2024/03/05 04:38:42;;;;;;;17.88;11.98;;;8.10;99.90;;;;;;4934132;29;20138;-63
2024/03/05 04:41:13;;;;;;;17.38;12.35;;;8.10;99.90;;;;;;4934308;29;20095;-63
2024/03/05 04:43:40;;;;;;;16.58;11.30;;;8.10;99.90;;;;;;4937726;28;20047;-63
2024/03/05 04:46:08;;;;;;;15.55;10.40;;;8.00;99.90;;;;;;4930643;29;20062;-63
2024/03/05 04:48:34;;;;;;;15.80;10.27;;;8.00;99.90;;;;;;4931267;29;20104;-63
2024/03/05 04:51:01;;;;;;;14.98;10.18;;;8.00;99.90;;;;;;4936732;29;20086;-63
2024/03/05 04:53:28;;;;;;;14.25;8.63;;;8.00;99.90;;;;;;4933816;29;20052;-63
2024/03/05 04:55:55;;;;;;;10.70;7.97;;;8.00;99.90;;;;;;4938407;29;20057;-63
2024/03/05 04:58:21;;;;;;;10.48;8.02;;;7.90;99.90;;;;;;4929901;29;20048;-63
2024/03/05 05:00:48;;;;;;;11.38;8.57;;;7.90;99.90;;;;;;4931859;29;20052;-63
2024/03/05 05:03:16;;;;;;;13.73;8.60;;;7.90;99.90;;;;;;4931892;29;20055;-63
2024/03/05 05:05:44;;;;;;;10.82;7.43;;;7.90;99.90;;;;;;4930477;29;20063;-63
2024/03/05 05:08:11;;;;;;;13.20;9.10;;;7.90;99.90;;;;;;4934838;29;20115;-63
2024/03/05 05:10:38;;;;;;;11.75;8.10;;;7.90;99.90;;;;;;4933566;29;20056;-63
2024/03/05 05:13:05;;;;;;;15.63;8.63;;;7.80;99.90;;;;;;4930902;29;20047;-63
2024/03/05 05:15:33;;;;;;;11.43;8.55;;;7.80;99.90;;;;;;4932619;29;20458;-63
2024/03/05 05:18:00;;;;;;;15.20;9.10;;;7.80;99.90;;;;;;4933872;29;20390;-63
2024/03/05 05:20:27;;;;;;;12.93;8.23;;;7.80;99.90;;;;;;4934862;29;20509;-63
2024/03/05 05:22:54;;;;;;;11.90;7.82;;;7.80;99.90;;;;;;4932902;29;20055;-63
2024/03/05 05:25:21;;;;;;;11.40;8.95;;;7.80;99.90;;;;;;4932127;29;20072;-63
2024/03/05 05:27:49;;;;;;;14.07;8.60;;;7.80;99.90;;;;;;4933594;29;20044;-63
2024/03/05 05:30:20;;;;;;;10.63;7.85;;;7.90;99.90;;;;;;4938468;29;20055;-63
2024/03/05 05:32:47;;;;;;;12.23;8.55;;;7.80;99.90;;;;;;4930631;29;20138;-63
2024/03/05 05:35:18;;;;;;;10.93;7.82;;;7.80;99.90;;;;;;4930396;29;20059;-63
2024/03/05 05:37:45;;;;;;;10.55;7.57;;;7.80;99.90;;;;;;4931032;29;20083;-63
2024/03/05 05:40:16;;;;;;;12.73;8.18;;;7.80;99.90;;;;;;4934049;29;20079;-62
2024/03/05 05:42:48;;;;;;;10.05;7.68;;;7.70;99.90;;;;;;4932520;29;20462;-63
2024/03/05 05:45:16;;;;;;;12.07;8.18;;;7.70;99.90;;;;;;4930341;29;20671;-62
2024/03/05 05:47:53;;;;;;;11.60;8.07;;;7.70;99.90;;;;;;4931308;29;20051;-63
2024/03/05 05:50:22;;;;;;;14.40;8.30;;;7.70;99.90;;;;;;4931830;29;20051;-63
2024/03/05 05:52:54;;;;;;;15.27;7.82;;;7.60;99.90;;;;;;4934505;29;20267;-63
2024/03/05 05:55:24;;;;;;;12.18;8.55;;;7.60;99.90;;;;;;4925093;29;20090;-63
2024/03/05 05:57:53;;;;;;;13.68;8.15;;;7.60;99.90;;;;;;4931311;29;20061;-63
2024/03/05 06:00:35;;;;;;;10.90;6.70;;;7.60;99.90;;;;;;4930210;29;20064;-63
2024/03/05 06:03:04;;;;;;;14.13;7.32;;;7.50;99.90;;;;;;4929959;29;20402;-63
2024/03/05 06:05:31;;;;;;;9.57;7.20;;;7.60;99.90;;;;;;4935196;29;20506;-64
2024/03/05 06:08:00;;;;;;;12.80;7.35;;;7.60;99.90;;;;;;4930115;29;20130;-63
2024/03/05 06:10:28;;;;;;;8.07;6.30;;;7.50;99.90;;;;;;4933719;29;20052;-63
2024/03/05 06:12:56;;;;;;;10.93;6.80;;;7.50;99.90;;;;;;4934999;29;20055;-63
2024/03/05 06:15:23;;;;;;;9.23;6.40;;;7.40;99.90;;;;;;4932769;29;20060;-63
2024/03/05 06:17:51;;;;;;;7.75;6.10;;;7.50;99.90;;;;;;4931145;29;20461;-63
2024/03/05 06:20:18;;;;;;;9.07;6.88;;;7.40;99.90;;;;;;4932809;29;20453;-63
2024/03/05 06:22:45;;;;;;;7.72;6.00;;;7.40;99.90;;;;;;4937019;29;20515;-62
2024/03/05 06:25:16;;;;;;;8.88;5.85;;;7.40;99.90;;;;;;4931495;29;20127;-63
2024/03/05 06:27:44;;;;;;;7.45;5.57;;;7.30;99.90;;;;;;4934729;29;20059;-63
2024/03/05 06:30:17;;;;;;;9.13;6.05;;;7.30;99.90;;;;;;4930927;29;20492;-63
2024/03/05 06:32:49;;;;;;;8.93;5.88;;;7.30;99.90;;;;;;4940963;29;20596;-63
2024/03/05 06:35:22;;;;;;;6.60;5.38;;;7.30;99.90;;;;;;4931849;29;20053;-63
2024/03/05 06:37:49;;;;;;;6.97;5.30;;;7.20;99.90;;;;;;4933231;29;20059;-64
2024/03/05 06:40:20;;;;;;;7.45;4.78;;;7.10;99.90;;;;;;4930237;29;20055;-64
2024/03/05 06:42:52;;;;;;;6.65;5.25;;;7.20;99.90;;;;;;4930566;29;20485;-64
2024/03/05 06:45:27;;;;;;;7.57;5.40;;;7.20;99.90;;;;;;4932752;29;20375;-64
2024/03/05 06:47:56;;;;;;;6.93;4.72;;;7.20;99.90;;;;;;4931078;29;20060;-64
2024/03/05 06:50:38;;;;;;;6.63;4.70;;;7.10;99.90;;;;;;4939811;29;20059;-62
2024/03/05 06:58:44;;;;;;;13.40;6.53;;;7.20;99.90;;;;;;4927522;29;20047;-63
2024/03/05 07:01:13;;;;;;;6.35;4.15;;;7.20;99.90;;;;;;4928104;29;20051;-63
2024/03/05 07:03:42;;;;;;;7.75;4.97;;;7.20;99.90;;;;;;4930603;29;20079;-61
2024/03/05 07:06:09;;;;;;;6.07;4.28;;;7.20;99.90;;;;;;4930120;29;20058;-63
2024/03/05 07:08:40;;;;;;;7.57;4.53;;;7.20;99.90;;;;;;4930954;29;20058;-58
2024/03/05 07:11:09;;;;;;;6.28;4.40;;;7.30;99.90;;;;;;4937491;29;20051;-61
2024/03/05 07:13:37;;;;;;;6.07;4.43;;;7.30;99.90;;;;;;4926868;29;20488;-62
2024/03/05 07:16:07;;;;;;;6.78;4.22;;;7.30;99.90;;;;;;4932007;29;20131;-63
2024/03/05 07:18:36;;;;;;;6.82;3.75;;;7.30;99.90;;;;;;4933450;29;20055;-62
2024/03/05 07:21:03;;;;;;;6.07;3.88;;;7.30;99.90;;;;;;4929455;29;20134;-61
2024/03/05 07:23:30;;;;;;;6.03;3.97;;;7.40;99.90;;;;;;4936150;29;20291;-61
2024/03/05 07:25:58;;;;;;;5.03;3.50;;;7.50;99.90;;;;;;4936602;29;20053;-65
2024/03/05 07:28:27;;;;;;;5.97;4.10;;;7.60;99.90;;;;;;4930495;29;20087;-59
2024/03/05 07:30:54;;;;;;;7.10;3.90;;;7.60;99.90;;;;;;4933338;29;20059;-57
2024/03/05 07:33:21;;;;;;;5.05;3.67;;;7.60;99.90;;;;;;4932415;29;20138;-59
2024/03/05 07:35:48;;;;;;;7.43;3.90;;;7.70;99.90;;;;;;4931787;29;20730;-64
2024/03/05 07:38:15;;;;;;;5.60;4.20;;;7.70;99.90;;;;;;4935690;29;20051;-63
2024/03/05 07:40:44;;;;;;;6.40;3.90;;;7.70;99.90;;;;;;4937388;29;20484;-60
2024/03/05 07:43:12;;;;;;;9.15;3.80;;;7.80;99.90;;;;;;4932454;29;20040;-62
2024/03/05 07:45:39;;;;;;;5.38;3.85;;;7.80;99.90;;;;;;4933883;29;20059;-63
2024/03/05 07:48:06;;;;;;;5.88;3.45;;;7.80;99.90;;;;;;4932826;29;20047;-64
2024/03/05 07:50:33;;;;;;;6.15;3.63;;;7.90;99.90;;;;;;4938652;29;20520;-64
2024/03/05 07:53:00;;;;;;;4.53;3.30;;;8.00;99.90;;;;;;4938390;29;20142;-64
2024/03/05 07:55:27;;;;;;;6.95;3.72;;;7.90;99.90;;;;;;4934655;29;20058;-64
2024/03/05 07:58:01;;;;;;;7.78;4.03;;;7.90;99.90;;;;;;4939397;29;20522;-64
2024/03/05 08:00:28;;;;;;;4.35;3.33;;;8.00;99.90;;;;;;4935635;29;20055;-64
2024/03/05 08:02:55;;;;;;;7.85;3.95;;;8.00;99.90;;;;;;4941716;29;20043;-64
2024/03/05 08:05:23;;;;;;;7.15;4.82;;;8.00;99.90;;;;;;4936901;29;20047;-64
2024/03/05 08:07:56;;;;;;;9.85;4.43;;;8.10;99.90;;;;;;4933781;29;20047;-64
2024/03/05 08:10:24;;;;;;;18.52;8.70;;;8.10;99.90;;;;;;4934272;29;20143;-64
2024/03/05 08:12:54;;;;;;;16.92;7.93;;;8.10;99.90;;;;;;4934626;29;20083;-64
2024/03/05 08:15:21;;;;;;;7.78;5.63;;;8.10;99.90;;;;;;4937179;29;20063;-64
2024/03/05 08:17:49;;;;;;;6.15;4.75;;;8.20;99.90;;;;;;4937151;29;20040;-65
2024/03/05 08:20:17;;;;;;;5.97;4.38;;;8.30;99.90;;;;;;4935090;29;20064;-64
2024/03/05 08:22:46;;;;;;;7.35;4.20;;;8.10;99.90;;;;;;4930582;29;20094;-64
2024/03/05 08:25:15;;;;;;;8.15;5.10;;;8.10;99.90;;;;;;4931461;29;20528;-64
2024/03/05 08:27:43;;;;;;;6.38;4.65;;;8.10;99.90;;;;;;4932350;29;20058;-65
2024/03/05 08:30:16;;;;;;;8.05;4.70;;;8.20;99.90;;;;;;4933614;29;20075;-66
2024/03/05 08:32:46;;;;;;;7.68;4.25;;;8.20;99.90;;;;;;4929095;29;20043;-65
2024/03/05 08:35:13;;;;;;;7.63;4.18;;;8.10;99.90;;;;;;4935432;29;20226;-65
2024/03/05 08:37:48;;;;;;;5.00;3.80;;;8.10;99.90;;;;;;4931706;29;20047;-65
2024/03/05 08:40:20;;;;;;;7.43;4.13;;;8.20;99.90;;;;;;4932768;29;20079;-66
2024/03/05 08:42:49;;;;;;;4.75;3.60;;;8.20;99.90;;;;;;4941692;29;20405;-65
2024/03/05 08:45:22;;;;;;;5.05;3.30;;;8.30;99.90;;;;;;4934268;29;20043;-65
2024/03/05 08:47:53;;;;;;;6.22;3.78;;;8.20;99.90;;;;;;4938228;29;20094;-65
2024/03/05 08:50:21;;;;;;;5.20;3.75;;;8.30;99.90;;;;;;4938860;29;20481;-65
2024/03/05 08:52:48;;;;;;;5.55;3.97;;;8.40;99.90;;;;;;4937932;29;20822;-65
2024/03/05 08:55:17;;;;;;;4.65;3.28;;;8.40;99.90;;;;;;4933370;29;20130;-65
2024/03/05 08:57:45;;;;;;;5.50;3.78;;;8.30;99.90;;;;;;4945210;29;20043;-65
2024/03/05 09:00:17;;;;;;;5.60;3.97;;;8.30;99.90;;;;;;4934145;29;20130;-65
2024/03/05 09:03:05;;;;;;;5.07;4.15;;;8.30;99.90;;;;;;4941928;29;20421;-65
2024/03/05 09:05:32;;;;;;;6.28;4.50;;;8.40;99.90;;;;;;4939530;29;20048;-65
2024/03/05 09:07:59;;;;;;;6.47;3.80;;;8.30;99.90;;;;;;4933944;29;20104;-65
2024/03/05 09:10:26;;;;;;;5.82;3.97;;;8.50;99.90;;;;;;4932112;29;20051;-65
2024/03/05 09:12:53;;;;;;;6.63;4.10;;;8.60;99.90;;;;;;4940260;29;20044;-65
2024/03/05 09:15:19;;;;;;;6.55;4.20;;;8.70;99.90;;;;;;4935437;29;20444;-65
2024/03/05 09:17:46;;;;;;;8.02;4.38;;;8.90;99.90;;;;;;4938493;29;20099;-65
2024/03/05 09:20:16;;;;;;;7.07;3.90;;;9.00;99.90;;;;;;4936528;29;20066;-65
2024/03/05 09:22:45;;;;;;;4.90;3.55;;;9.10;99.90;;;;;;4943979;29;20047;-65
2024/03/05 09:25:14;;;;;;;5.25;3.58;;;9.30;99.90;;;;;;4933239;29;20052;-65
2024/03/05 09:27:44;;;;;;;4.70;3.35;;;9.40;99.90;;;;;;4937833;29;20048;-65
2024/03/05 09:30:14;;;;;;;5.82;3.40;;;9.40;99.90;;;;;;4931612;29;20627;-65
2024/03/05 09:32:42;;;;;;;5.05;3.83;;;9.50;99.90;;;;;;4932964;29;20047;-65
2024/03/05 09:35:09;;;;;;;4.68;3.58;;;9.60;99.90;;;;;;4933067;29;20417;-65
2024/03/05 09:37:37;;;;;;;5.90;3.47;;;9.70;99.90;;;;;;4935772;29;20051;-65
2024/03/05 09:40:06;;;;;;;4.45;3.42;;;9.70;99.90;;;;;;4935687;29;20134;-65
2024/03/05 09:42:36;;;;;;;7.17;3.93;;;9.50;99.90;;;;;;4932158;29;20044;-66
2024/03/05 09:45:06;;;;;;;4.35;3.60;;;9.40;99.90;;;;;;4935314;29;20408;-65
2024/03/05 09:47:36;;;;;;;6.13;4.00;;;9.30;99.90;;;;;;4931685;29;20131;-65
2024/03/05 09:50:04;;;;;;;5.47;3.15;;;9.30;99.90;;;;;;4937979;29;20138;-65
2024/03/05 09:52:32;;;;;;;4.65;3.10;;;9.40;99.90;;;;;;4937334;29;20106;-65
2024/03/05 09:55:01;;;;;;;3.28;2.80;;;9.50;99.90;;;;;;4934827;29;20047;-65
2024/03/05 09:57:32;;;;;;;4.40;2.75;;;9.60;99.90;;;;;;4940418;29;20067;-65
2024/03/05 09:59:59;;;;;;;5.80;3.28;;;9.70;99.90;;;;;;4936693;29;20048;-65
2024/03/05 10:02:27;;;;;;;5.80;2.95;;;9.90;99.90;;;;;;4932147;29;20067;-65
2024/03/05 10:04:57;;;;;;;5.53;3.25;;;10.10;99.90;;;;;;4935825;29;20052;-65
2024/03/05 10:07:25;;;;;;;3.88;2.75;;;10.10;99.90;;;;;;4932102;29;20114;-65
2024/03/05 10:10:10;;;;;;;4.80;2.70;;;10.00;99.90;;;;;;4934309;29;20090;-65
2024/03/05 10:12:40;;;;;;;3.63;2.90;;;10.10;99.90;;;;;;4934654;29;20551;-65
2024/03/05 10:15:20;;;;;;;5.03;2.67;;;10.10;99.90;;;;;;4930795;29;20047;-65
2024/03/05 10:17:49;;;;;;;5.45;3.05;;;9.90;99.90;;;;;;4927568;29;20051;-65
2024/03/05 10:20:33;;;;;;;4.70;2.83;;;9.90;99.90;;;;;;4930271;29;20063;-65
2024/03/05 10:23:06;;;;;;;4.35;2.47;;;9.80;99.90;;;;;;4930212;29;20110;-65
2024/03/05 10:25:34;;;;;;;4.47;2.55;;;9.90;99.90;;;;;;4931938;29;20079;-65
2024/03/05 10:28:03;;;;;;;4.70;2.72;;;10.30;99.90;;;;;;4932262;29;20450;-65
2024/03/05 10:30:32;;;;;;;3.75;2.47;;;10.70;99.90;;;;;;4930309;29;20135;-65
2024/03/05 10:33:04;;;;;;;5.22;2.67;;;11.00;99.90;;;;;;4931593;29;20464;-65
2024/03/05 10:35:32;;;;;;;4.50;2.60;;;11.20;99.90;;;;;;4931028;29;20058;-65
2024/03/05 10:37:59;;;;;;;5.65;2.67;;;11.30;99.90;;;;;;4931581;29;20499;-65
2024/03/05 10:40:31;;;;;;;6.43;3.00;;;11.30;99.90;;;;;;4930680;29;20048;-65
2024/03/05 10:43:04;;;;;;;4.05;2.60;;;11.60;99.90;;;;;;4931694;29;20051;-65
2024/03/05 10:45:37;;;;;;;4.30;2.92;;;11.70;99.90;;;;;;4931100;29;20103;-65
2024/03/05 10:48:07;;;;;;;5.53;2.40;;;12.00;99.90;;;;;;4931320;29;20043;-65
2024/03/05 10:50:36;;;;;;;6.07;2.67;;;11.80;99.90;;;;;;4931331;29;20044;-65
2024/03/05 10:53:07;;;;;;;4.22;2.38;;;11.80;99.90;;;;;;4937839;29;20050;-65
2024/03/05 10:55:34;;;;;;;3.95;2.83;;;11.80;99.90;;;;;;4931211;29;20054;-65
2024/03/05 11:00:40;;;;;;;7.65;2.65;;;12.00;99.90;;;;;;4930061;29;20138;-65
2024/03/05 11:03:12;;;;;;;4.35;2.30;;;12.10;99.90;;;;;;4933724;29;20123;-65
2024/03/05 11:05:49;;;;;;;5.45;2.45;;;12.10;99.90;;;;;;4930394;29;20102;-65
2024/03/05 11:08:24;;;;;;;5.60;2.50;;;12.10;99.90;;;;;;4931931;29;20089;-65
2024/03/05 11:10:57;;;;;;;5.05;1.98;;;12.10;99.90;;;;;;4925918;29;20051;-65
2024/03/05 11:13:26;;;;;;;3.55;1.88;;;11.80;99.90;;;;;;4933545;29;20065;-65
2024/03/05 11:15:54;;;;;;;4.28;2.40;;;11.50;99.90;;;;;;4936191;29;20048;-65
2024/03/05 11:18:34;;;;;;;2.80;2.05;;;11.30;99.90;;;;;;4933258;29;20118;-65
2024/03/05 11:21:01;;;;;;;;;;;11.20;99.90;;;;;;4936229;29;20130;-65
2024/03/05 11:23:29;;;;;;;6.47;2.00;;;11.40;99.90;;;;;;4931295;29;19926;-65
2024/03/05 11:26:03;;;;;;;7.05;2.70;;;11.60;99.90;;;;;;4931831;29;20133;-63
2024/03/05 11:28:31;;;;;;;7.20;1.80;;;11.80;99.90;;;;;;4930198;29;20047;-63
2024/03/05 11:31:17;;;;;;;5.22;1.77;;;11.90;99.90;;;;;;4933722;29;20147;-64
2024/03/05 11:34:02;;;;;;;4.22;2.45;;;12.30;99.90;;;;;;4925720;29;20127;-63
2024/03/05 11:36:33;;;;;;;4.57;1.70;;;12.40;99.90;;;;;;4929054;29;20141;-63
2024/03/05 11:39:08;;;;;;;5.38;1.50;;;12.50;99.90;;;;;;4936180;29;20046;-64
2024/03/05 11:41:37;;;;;;;4.50;1.73;;;12.40;99.90;;;;;;4930919;29;20052;-64
2024/03/05 11:44:04;;;;;;;4.03;1.85;;;12.40;99.90;;;;;;4931969;29;20440;-64
2024/03/05 11:46:46;;;;;;;7.65;1.58;;;12.20;99.90;;;;;;4931469;29;20390;-63
2024/03/05 11:49:15;;;;;;;6.07;1.55;;;12.00;99.90;;;;;;4930080;29;20047;-63
2024/03/05 11:51:46;;;;;;;6.35;1.83;;;11.70;99.90;;;;;;4930742;29;20071;-63
2024/03/05 11:54:14;;;;;;;5.25;1.70;;;11.40;99.90;;;;;;4933114;29;20143;-63
2024/03/05 11:56:43;;;;;;;7.00;1.83;;;11.10;99.90;;;;;;4938151;29;20051;-63
2024/03/05 11:59:11;;;;;;;2.78;1.45;;;11.00;99.90;;;;;;4930878;29;20120;-63
2024/03/05 12:01:41;;;;;;;4.07;1.40;;;10.80;99.90;;;;;;4930944;29;20058;-63
2024/03/05 12:04:09;;;;;;;2.97;1.40;;;10.70;99.90;;;;;;4931161;29;20078;-63
2024/03/05 12:06:43;;;;;;;4.07;1.60;;;10.60;99.90;;;;;;4931951;29;20055;-63
2024/03/05 12:09:23;;;;;;;4.88;1.48;;;10.70;99.90;;;;;;4934652;29;20044;-64
2024/03/05 12:12:05;;;;;;;3.03;1.38;;;10.60;99.90;;;;;;4928003;29;20134;-63
2024/03/05 12:14:34;;;;;;;3.75;1.40;;;10.60;99.90;;;;;;4934231;29;20111;-63
2024/03/05 12:17:07;;;;;;;5.13;1.40;;;10.60;99.90;;;;;;4938967;29;20051;-63
2024/03/05 12:19:37;;;;;;;4.93;1.50;;;10.60;99.90;;;;;;4938193;29;20544;-63
2024/03/05 12:22:06;;;;;;;4.57;1.48;;;10.50;99.90;;;;;;4935073;29;20054;-63
2024/03/05 12:24:34;;;;;;;2.97;1.50;;;10.60;99.90;;;;;;4935572;29;20048;-63
2024/03/05 12:27:04;;;;;;;6.75;1.13;;;10.90;99.90;;;;;;4935802;29;20434;-64
2024/03/05 12:29:37;;;;;;;3.97;2.00;;;11.30;99.90;;;;;;4932604;29;20142;-64
2024/03/05 12:32:06;;;;;;;4.07;1.88;;;11.60;99.90;;;;;;4939192;29;20058;-63
2024/03/05 12:34:34;;;;;;;4.70;1.73;;;11.80;99.90;;;;;;4934338;29;20066;-63
2024/03/05 12:37:01;;;;;;;3.40;1.30;;;12.10;99.90;;;;;;4939439;29;20051;-64
2024/03/05 12:39:28;;;;;;;2.05;1.00;;;12.40;99.90;;;;;;4933212;29;20065;-63
2024/03/05 12:42:05;;;;;;;2.42;1.10;;;12.60;99.90;;;;;;4933084;29;20079;-63
2024/03/05 12:44:33;;;;;;;1.20;0.80;;;12.60;99.90;;;;;;4931194;29;20067;-63
2024/03/05 12:47:12;;;;;;;2.00;0.88;;;12.70;99.90;;;;;;4934860;29;20122;-63
2024/03/05 12:49:48;;;;;;;2.58;0.70;;;12.90;99.90;;;;;;4932827;29;20408;-63
2024/03/05 12:52:22;;;;;;;2.28;1.15;;;12.80;99.90;;;;;;4935046;29;20681;-63
2024/03/05 12:55:07;;;;;;;3.58;1.25;;;12.70;99.90;;;;;;4935481;29;20051;-63
2024/03/05 12:57:35;;;;;;;3.83;1.10;;;12.50;99.90;;;;;;4933179;29;20051;-63
2024/03/05 13:00:10;;;;;;;2.05;1.05;;;12.40;99.90;;;;;;4933431;29;20113;-63
2024/03/05 13:02:38;;;;;;;2.70;1.35;;;12.50;99.90;;;;;;4932339;29;20052;-63
2024/03/05 13:05:07;;;;;;;3.85;1.20;;;12.50;99.90;;;;;;4935728;29;20541;-63